sensor_id;sensor_type;location;lat;lon;timestamp;pressure;altitude;pressure_sealevel;temperature
13570;BMP180;6856;51.460;7.158;2022-10-16T00:01:37;99936.00;;;18.60
13570;BMP180;6856;51.460;7.158;2022-10-16T00:04:11;99946.00;;;18.60
13570;BMP180;6856;51.460;7.158;2022-10-16T00:06:45;99927.00;;;18.60
13570;BMP180;6856;51.460;7.158;2022-10-16T00:09:19;99935.00;;;18.60
13570;BMP180;6856;51.460;7.158;2022-10-16T00:11:53;99960.00;;;18.60
13570;BMP180;6856;51.460;7.158;2022-10-16T00:14:27;99953.00;;;18.60
13570;BMP180;6856;51.460;7.158;2022-10-16T00:17:03;99948.00;;;18.60
13570;BMP180;6856;51.460;7.158;2022-10-16T00:19:38;99945.00;;;18.60
13570;BMP180;6856;51.460;7.158;2022-10-16T00:22:11;99945.00;;;18.60
13570;BMP180;6856;51.460;7.158;2022-10-16T00:24:44;99951.00;;;18.60
13570;BMP180;6856;51.460;7.158;2022-10-16T00:27:19;99957.00;;;18.60
13570;BMP180;6856;51.460;7.158;2022-10-16T00:29:52;99956.00;;;18.60
13570;BMP180;6856;51.460;7.158;2022-10-16T00:32:27;99953.00;;;18.60
13570;BMP180;6856;51.460;7.158;2022-10-16T00:35:00;99957.00;;;18.60
13570;BMP180;6856;51.460;7.158;2022-10-16T00:37:35;99943.00;;;18.50
13570;BMP180;6856;51.460;7.158;2022-10-16T00:40:10;99953.00;;;18.50
13570;BMP180;6856;51.460;7.158;2022-10-16T00:42:45;99966.00;;;18.50
13570;BMP180;6856;51.460;7.158;2022-10-16T00:45:19;99964.00;;;18.50
13570;BMP180;6856;51.460;7.158;2022-10-16T00:47:55;99972.00;;;18.50
13570;BMP180;6856;51.460;7.158;2022-10-16T00:50:33;99964.00;;;18.50
13570;BMP180;6856;51.460;7.158;2022-10-16T00:53:06;99965.00;;;18.40
13570;BMP180;6856;51.460;7.158;2022-10-16T00:55:40;99964.00;;;18.40
13570;BMP180;6856;51.460;7.158;2022-10-16T00:58:15;99937.00;;;18.40
13570;BMP180;6856;51.460;7.158;2022-10-16T01:00:48;99961.00;;;18.40
13570;BMP180;6856;51.460;7.158;2022-10-16T01:03:26;99968.00;;;18.40
13570;BMP180;6856;51.460;7.158;2022-10-16T01:06:16;99961.00;;;18.40
13570;BMP180;6856;51.460;7.158;2022-10-16T01:09:04;99958.00;;;18.40
13570;BMP180;6856;51.460;7.158;2022-10-16T01:11:56;99936.00;;;18.40
13570;BMP180;6856;51.460;7.158;2022-10-16T01:14:45;99959.00;;;18.40
13570;BMP180;6856;51.460;7.158;2022-10-16T01:17:27;99966.00;;;18.30
13570;BMP180;6856;51.460;7.158;2022-10-16T01:20:10;99968.00;;;18.40
13570;BMP180;6856;51.460;7.158;2022-10-16T01:23:09;99976.00;;;18.40
13570;BMP180;6856;51.460;7.158;2022-10-16T01:26:03;99979.00;;;18.40
13570;BMP180;6856;51.460;7.158;2022-10-16T01:28:51;99977.00;;;18.30
13570;BMP180;6856;51.460;7.158;2022-10-16T01:31:30;99954.00;;;18.30
13570;BMP180;6856;51.460;7.158;2022-10-16T01:34:11;99972.00;;;18.30
13570;BMP180;6856;51.460;7.158;2022-10-16T01:36:53;99964.00;;;18.30
13570;BMP180;6856;51.460;7.158;2022-10-16T01:39:33;99957.00;;;18.30
13570;BMP180;6856;51.460;7.158;2022-10-16T01:42:20;99967.00;;;18.30
13570;BMP180;6856;51.460;7.158;2022-10-16T01:44:58;99968.00;;;18.30
13570;BMP180;6856;51.460;7.158;2022-10-16T01:47:34;99959.00;;;18.30
13570;BMP180;6856;51.460;7.158;2022-10-16T01:50:09;99968.00;;;18.30
13570;BMP180;6856;51.460;7.158;2022-10-16T01:52:47;99965.00;;;18.30
13570;BMP180;6856;51.460;7.158;2022-10-16T01:55:28;99948.00;;;18.30
13570;BMP180;6856;51.460;7.158;2022-10-16T01:58:05;99971.00;;;18.30
13570;BMP180;6856;51.460;7.158;2022-10-16T02:00:45;99970.00;;;18.20
13570;BMP180;6856;51.460;7.158;2022-10-16T02:03:20;99960.00;;;18.20
13570;BMP180;6856;51.460;7.158;2022-10-16T02:05:57;99968.00;;;18.20
13570;BMP180;6856;51.460;7.158;2022-10-16T02:08:32;99966.00;;;18.20
13570;BMP180;6856;51.460;7.158;2022-10-16T02:11:07;99961.00;;;18.10
13570;BMP180;6856;51.460;7.158;2022-10-16T02:13:45;99968.00;;;18.10
13570;BMP180;6856;51.460;7.158;2022-10-16T02:16:20;99958.00;;;18.10
13570;BMP180;6856;51.460;7.158;2022-10-16T02:18:54;99968.00;;;18.10
13570;BMP180;6856;51.460;7.158;2022-10-16T02:21:35;99953.00;;;18.10
13570;BMP180;6856;51.460;7.158;2022-10-16T02:24:23;99961.00;;;18.10
13570;BMP180;6856;51.460;7.158;2022-10-16T02:27:05;99971.00;;;18.00
13570;BMP180;6856;51.460;7.158;2022-10-16T02:29:44;99967.00;;;18.00
13570;BMP180;6856;51.460;7.158;2022-10-16T02:32:28;99970.00;;;18.00
13570;BMP180;6856;51.460;7.158;2022-10-16T02:35:05;99977.00;;;18.10
13570;BMP180;6856;51.460;7.158;2022-10-16T02:37:41;99964.00;;;18.10
13570;BMP180;6856;51.460;7.158;2022-10-16T02:40:17;99980.00;;;18.10
13570;BMP180;6856;51.460;7.158;2022-10-16T02:42:56;99984.00;;;18.10
13570;BMP180;6856;51.460;7.158;2022-10-16T02:45:30;99975.00;;;18.10
13570;BMP180;6856;51.460;7.158;2022-10-16T02:48:06;99976.00;;;18.10
13570;BMP180;6856;51.460;7.158;2022-10-16T02:50:40;99976.00;;;18.00
13570;BMP180;6856;51.460;7.158;2022-10-16T02:53:14;99976.00;;;18.00
13570;BMP180;6856;51.460;7.158;2022-10-16T02:55:47;99972.00;;;18.00
13570;BMP180;6856;51.460;7.158;2022-10-16T02:58:26;99982.00;;;18.10
13570;BMP180;6856;51.460;7.158;2022-10-16T03:01:01;99973.00;;;18.10
13570;BMP180;6856;51.460;7.158;2022-10-16T03:03:36;99973.00;;;18.10
13570;BMP180;6856;51.460;7.158;2022-10-16T03:06:10;99964.00;;;18.10
13570;BMP180;6856;51.460;7.158;2022-10-16T03:08:45;99976.00;;;18.10
13570;BMP180;6856;51.460;7.158;2022-10-16T03:11:18;99981.00;;;18.10
13570;BMP180;6856;51.460;7.158;2022-10-16T03:13:53;99986.00;;;18.10
13570;BMP180;6856;51.460;7.158;2022-10-16T03:16:27;99973.00;;;18.00
13570;BMP180;6856;51.460;7.158;2022-10-16T03:19:01;99995.00;;;18.00
13570;BMP180;6856;51.460;7.158;2022-10-16T03:21:35;99976.00;;;18.00
13570;BMP180;6856;51.460;7.158;2022-10-16T03:24:08;99991.00;;;18.00
13570;BMP180;6856;51.460;7.158;2022-10-16T03:26:42;99979.00;;;18.10
13570;BMP180;6856;51.460;7.158;2022-10-16T03:29:15;99975.00;;;18.00
13570;BMP180;6856;51.460;7.158;2022-10-16T03:31:49;99976.00;;;18.10
13570;BMP180;6856;51.460;7.158;2022-10-16T03:34:23;99979.00;;;18.00
13570;BMP180;6856;51.460;7.158;2022-10-16T03:36:57;99976.00;;;18.00
13570;BMP180;6856;51.460;7.158;2022-10-16T03:39:31;99968.00;;;18.00
13570;BMP180;6856;51.460;7.158;2022-10-16T03:42:04;99976.00;;;18.10
13570;BMP180;6856;51.460;7.158;2022-10-16T03:44:38;99978.00;;;18.10
13570;BMP180;6856;51.460;7.158;2022-10-16T03:47:12;99987.00;;;18.10
13570;BMP180;6856;51.460;7.158;2022-10-16T03:49:47;99993.00;;;18.10
13570;BMP180;6856;51.460;7.158;2022-10-16T03:52:20;99984.00;;;18.10
13570;BMP180;6856;51.460;7.158;2022-10-16T03:54:54;99981.00;;;18.10
13570;BMP180;6856;51.460;7.158;2022-10-16T03:57:28;99988.00;;;18.10
13570;BMP180;6856;51.460;7.158;2022-10-16T04:00:02;99973.00;;;18.10
13570;BMP180;6856;51.460;7.158;2022-10-16T04:02:39;99985.00;;;18.10
13570;BMP180;6856;51.460;7.158;2022-10-16T04:05:14;99968.00;;;18.10
13570;BMP180;6856;51.460;7.158;2022-10-16T04:07:48;100002.00;;;18.10
13570;BMP180;6856;51.460;7.158;2022-10-16T04:10:22;99999.00;;;18.00
13570;BMP180;6856;51.460;7.158;2022-10-16T04:12:55;100006.00;;;18.00
13570;BMP180;6856;51.460;7.158;2022-10-16T04:15:29;100004.00;;;18.00
13570;BMP180;6856;51.460;7.158;2022-10-16T04:18:03;99996.00;;;18.00
13570;BMP180;6856;51.460;7.158;2022-10-16T04:20:38;100004.00;;;18.00
13570;BMP180;6856;51.460;7.158;2022-10-16T04:23:11;100011.00;;;18.00
13570;BMP180;6856;51.460;7.158;2022-10-16T04:25:45;100009.00;;;18.00
13570;BMP180;6856;51.460;7.158;2022-10-16T04:28:18;100002.00;;;18.00
13570;BMP180;6856;51.460;7.158;2022-10-16T04:30:52;100025.00;;;17.90
13570;BMP180;6856;51.460;7.158;2022-10-16T04:33:26;100023.00;;;17.90
13570;BMP180;6856;51.460;7.158;2022-10-16T04:36:03;100019.00;;;17.90
13570;BMP180;6856;51.460;7.158;2022-10-16T04:38:36;100028.00;;;17.90
13570;BMP180;6856;51.460;7.158;2022-10-16T04:41:11;100015.00;;;17.90
13570;BMP180;6856;51.460;7.158;2022-10-16T04:43:45;100031.00;;;17.90
13570;BMP180;6856;51.460;7.158;2022-10-16T04:46:19;100040.00;;;17.90
13570;BMP180;6856;51.460;7.158;2022-10-16T04:48:52;100051.00;;;17.90
13570;BMP180;6856;51.460;7.158;2022-10-16T04:51:27;100042.00;;;17.90
13570;BMP180;6856;51.460;7.158;2022-10-16T04:54:00;100037.00;;;17.80
13570;BMP180;6856;51.460;7.158;2022-10-16T04:56:34;100037.00;;;17.80
13570;BMP180;6856;51.460;7.158;2022-10-16T04:59:15;100036.00;;;17.80
13570;BMP180;6856;51.460;7.158;2022-10-16T05:01:49;100041.00;;;17.80
13570;BMP180;6856;51.460;7.158;2022-10-16T05:04:24;100055.00;;;17.70
13570;BMP180;6856;51.460;7.158;2022-10-16T05:06:58;100039.00;;;17.80
13570;BMP180;6856;51.460;7.158;2022-10-16T05:09:32;100057.00;;;17.80
13570;BMP180;6856;51.460;7.158;2022-10-16T05:12:07;100075.00;;;17.70
13570;BMP180;6856;51.460;7.158;2022-10-16T05:14:40;100077.00;;;17.70
13570;BMP180;6856;51.460;7.158;2022-10-16T05:17:14;100067.00;;;17.80
13570;BMP180;6856;51.460;7.158;2022-10-16T05:19:47;100078.00;;;17.70
13570;BMP180;6856;51.460;7.158;2022-10-16T05:22:23;100075.00;;;17.70
13570;BMP180;6856;51.460;7.158;2022-10-16T05:24:57;100081.00;;;17.80
13570;BMP180;6856;51.460;7.158;2022-10-16T05:27:31;100068.00;;;17.70
13570;BMP180;6856;51.460;7.158;2022-10-16T05:30:08;100088.00;;;17.80
13570;BMP180;6856;51.460;7.158;2022-10-16T05:32:47;100094.00;;;17.80
13570;BMP180;6856;51.460;7.158;2022-10-16T05:35:21;100065.00;;;17.80
13570;BMP180;6856;51.460;7.158;2022-10-16T05:37:56;100093.00;;;17.70
13570;BMP180;6856;51.460;7.158;2022-10-16T05:40:31;100091.00;;;17.70
13570;BMP180;6856;51.460;7.158;2022-10-16T05:43:04;100082.00;;;17.70
13570;BMP180;6856;51.460;7.158;2022-10-16T05:45:38;100102.00;;;17.70
13570;BMP180;6856;51.460;7.158;2022-10-16T05:48:11;100095.00;;;17.70
13570;BMP180;6856;51.460;7.158;2022-10-16T05:50:45;100103.00;;;17.70
13570;BMP180;6856;51.460;7.158;2022-10-16T05:53:20;100092.00;;;17.70
13570;BMP180;6856;51.460;7.158;2022-10-16T05:55:58;100102.00;;;17.70
13570;BMP180;6856;51.460;7.158;2022-10-16T05:58:33;100098.00;;;17.70
13570;BMP180;6856;51.460;7.158;2022-10-16T06:01:12;100096.00;;;17.70
13570;BMP180;6856;51.460;7.158;2022-10-16T06:03:46;100104.00;;;17.70
13570;BMP180;6856;51.460;7.158;2022-10-16T06:06:23;100113.00;;;17.70
13570;BMP180;6856;51.460;7.158;2022-10-16T06:08:59;100108.00;;;17.70
13570;BMP180;6856;51.460;7.158;2022-10-16T06:11:33;100117.00;;;17.70
13570;BMP180;6856;51.460;7.158;2022-10-16T06:14:09;100112.00;;;17.70
13570;BMP180;6856;51.460;7.158;2022-10-16T06:16:42;100120.00;;;17.70
13570;BMP180;6856;51.460;7.158;2022-10-16T06:19:16;100148.00;;;17.70
13570;BMP180;6856;51.460;7.158;2022-10-16T06:21:50;100144.00;;;17.70
13570;BMP180;6856;51.460;7.158;2022-10-16T06:24:25;100137.00;;;17.70
13570;BMP180;6856;51.460;7.158;2022-10-16T06:26:58;100147.00;;;17.70
13570;BMP180;6856;51.460;7.158;2022-10-16T06:29:32;100149.00;;;17.70
13570;BMP180;6856;51.460;7.158;2022-10-16T06:32:34;100151.00;;;17.70
13570;BMP180;6856;51.460;7.158;2022-10-16T06:35:08;100153.00;;;17.70
13570;BMP180;6856;51.460;7.158;2022-10-16T06:37:41;100145.00;;;17.70
13570;BMP180;6856;51.460;7.158;2022-10-16T06:40:16;100156.00;;;17.70
13570;BMP180;6856;51.460;7.158;2022-10-16T06:42:50;100161.00;;;17.70
13570;BMP180;6856;51.460;7.158;2022-10-16T06:45:24;100160.00;;;17.70
13570;BMP180;6856;51.460;7.158;2022-10-16T06:48:01;100152.00;;;17.80
13570;BMP180;6856;51.460;7.158;2022-10-16T06:50:34;100156.00;;;17.70
13570;BMP180;6856;51.460;7.158;2022-10-16T06:53:07;100166.00;;;17.80
13570;BMP180;6856;51.460;7.158;2022-10-16T06:55:42;100181.00;;;17.80
13570;BMP180;6856;51.460;7.158;2022-10-16T06:58:16;100171.00;;;17.80
13570;BMP180;6856;51.460;7.158;2022-10-16T07:00:55;100202.00;;;17.80
13570;BMP180;6856;51.460;7.158;2022-10-16T07:03:29;100205.00;;;17.90
13570;BMP180;6856;51.460;7.158;2022-10-16T07:06:04;100202.00;;;17.90
13570;BMP180;6856;51.460;7.158;2022-10-16T07:08:42;100212.00;;;17.90
13570;BMP180;6856;51.460;7.158;2022-10-16T07:11:19;100221.00;;;17.90
13570;BMP180;6856;51.460;7.158;2022-10-16T07:13:53;100225.00;;;17.90
13570;BMP180;6856;51.460;7.158;2022-10-16T07:16:30;100235.00;;;18.00
13570;BMP180;6856;51.460;7.158;2022-10-16T07:19:04;100211.00;;;18.00
13570;BMP180;6856;51.460;7.158;2022-10-16T07:21:39;100237.00;;;18.00
13570;BMP180;6856;51.460;7.158;2022-10-16T07:24:16;100252.00;;;18.00
13570;BMP180;6856;51.460;7.158;2022-10-16T07:26:51;100237.00;;;18.00
13570;BMP180;6856;51.460;7.158;2022-10-16T07:29:24;100249.00;;;18.10
13570;BMP180;6856;51.460;7.158;2022-10-16T07:31:58;100247.00;;;18.10
13570;BMP180;6856;51.460;7.158;2022-10-16T07:34:32;100246.00;;;18.10
13570;BMP180;6856;51.460;7.158;2022-10-16T07:37:06;100250.00;;;18.10
13570;BMP180;6856;51.460;7.158;2022-10-16T07:39:40;100258.00;;;18.10
13570;BMP180;6856;51.460;7.158;2022-10-16T07:42:15;100240.00;;;18.10
13570;BMP180;6856;51.460;7.158;2022-10-16T07:44:49;100255.00;;;18.10
13570;BMP180;6856;51.460;7.158;2022-10-16T07:47:22;100262.00;;;18.20
13570;BMP180;6856;51.460;7.158;2022-10-16T07:49:57;100272.00;;;18.30
13570;BMP180;6856;51.460;7.158;2022-10-16T07:52:30;100273.00;;;18.30
13570;BMP180;6856;51.460;7.158;2022-10-16T07:55:08;100279.00;;;18.40
13570;BMP180;6856;51.460;7.158;2022-10-16T07:57:43;100275.00;;;18.40
13570;BMP180;6856;51.460;7.158;2022-10-16T08:00:17;100313.00;;;18.50
13570;BMP180;6856;51.460;7.158;2022-10-16T08:02:52;100281.00;;;18.60
13570;BMP180;6856;51.460;7.158;2022-10-16T08:05:29;100301.00;;;18.70
13570;BMP180;6856;51.460;7.158;2022-10-16T08:08:06;100299.00;;;18.70
13570;BMP180;6856;51.460;7.158;2022-10-16T08:10:43;100296.00;;;18.80
13570;BMP180;6856;51.460;7.158;2022-10-16T08:13:19;100307.00;;;18.90
13570;BMP180;6856;51.460;7.158;2022-10-16T08:15:54;100307.00;;;19.00
13570;BMP180;6856;51.460;7.158;2022-10-16T08:18:29;100297.00;;;19.00
13570;BMP180;6856;51.460;7.158;2022-10-16T08:21:05;100325.00;;;19.10
13570;BMP180;6856;51.460;7.158;2022-10-16T08:23:41;100331.00;;;19.10
13570;BMP180;6856;51.460;7.158;2022-10-16T08:26:16;100343.00;;;19.20
13570;BMP180;6856;51.460;7.158;2022-10-16T08:28:52;100345.00;;;19.30
13570;BMP180;6856;51.460;7.158;2022-10-16T08:31:36;100337.00;;;19.40
13570;BMP180;6856;51.460;7.158;2022-10-16T08:34:11;100348.00;;;19.40
13570;BMP180;6856;51.460;7.158;2022-10-16T08:36:45;100357.00;;;19.50
13570;BMP180;6856;51.460;7.158;2022-10-16T08:39:19;100347.00;;;19.60
13570;BMP180;6856;51.460;7.158;2022-10-16T08:42:28;100348.00;;;19.70
13570;BMP180;6856;51.460;7.158;2022-10-16T08:45:24;100364.00;;;19.80
13570;BMP180;6856;51.460;7.158;2022-10-16T08:48:16;100372.00;;;19.80
13570;BMP180;6856;51.460;7.158;2022-10-16T08:50:52;100362.00;;;19.90
13570;BMP180;6856;51.460;7.158;2022-10-16T08:53:33;100363.00;;;19.90
13570;BMP180;6856;51.460;7.158;2022-10-16T08:56:10;100337.00;;;19.90
13570;BMP180;6856;51.460;7.158;2022-10-16T08:58:46;100371.00;;;19.90
13570;BMP180;6856;51.460;7.158;2022-10-16T09:01:24;100380.00;;;20.00
13570;BMP180;6856;51.460;7.158;2022-10-16T09:04:35;100375.00;;;20.00
13570;BMP180;6856;51.460;7.158;2022-10-16T09:07:19;100347.00;;;20.10
13570;BMP180;6856;51.460;7.158;2022-10-16T09:10:19;100405.00;;;20.10
13570;BMP180;6856;51.460;7.158;2022-10-16T09:13:04;100337.00;;;20.20
13570;BMP180;6856;51.460;7.158;2022-10-16T09:15:53;100410.00;;;20.30
13570;BMP180;6856;51.460;7.158;2022-10-16T09:18:37;100413.00;;;20.30
13570;BMP180;6856;51.460;7.158;2022-10-16T09:21:19;100411.00;;;20.40
13570;BMP180;6856;51.460;7.158;2022-10-16T09:23:59;100415.00;;;20.50
13570;BMP180;6856;51.460;7.158;2022-10-16T09:26:33;100415.00;;;20.50
13570;BMP180;6856;51.460;7.158;2022-10-16T09:29:10;100420.00;;;20.60
13570;BMP180;6856;51.460;7.158;2022-10-16T09:31:46;100425.00;;;20.60
13570;BMP180;6856;51.460;7.158;2022-10-16T09:34:30;100431.00;;;20.70
13570;BMP180;6856;51.460;7.158;2022-10-16T09:37:11;100423.00;;;20.80
13570;BMP180;6856;51.460;7.158;2022-10-16T09:39:47;100438.00;;;20.80
13570;BMP180;6856;51.460;7.158;2022-10-16T09:42:27;100430.00;;;20.90
13570;BMP180;6856;51.460;7.158;2022-10-16T09:45:05;100433.00;;;20.90
13570;BMP180;6856;51.460;7.158;2022-10-16T09:47:42;100407.00;;;21.00
13570;BMP180;6856;51.460;7.158;2022-10-16T09:50:25;100426.00;;;21.00
13570;BMP180;6856;51.460;7.158;2022-10-16T09:53:10;100430.00;;;21.00
13570;BMP180;6856;51.460;7.158;2022-10-16T09:55:54;100428.00;;;21.10
13570;BMP180;6856;51.460;7.158;2022-10-16T09:58:27;100391.00;;;21.20
13570;BMP180;6856;51.460;7.158;2022-10-16T10:01:05;100431.00;;;21.20
13570;BMP180;6856;51.460;7.158;2022-10-16T10:03:41;100403.00;;;21.30
13570;BMP180;6856;51.460;7.158;2022-10-16T10:06:43;100410.00;;;21.20
13570;BMP180;6856;51.460;7.158;2022-10-16T10:09:23;100424.00;;;21.40
13570;BMP180;6856;51.460;7.158;2022-10-16T10:11:59;100440.00;;;21.40
13570;BMP180;6856;51.460;7.158;2022-10-16T10:14:37;100430.00;;;21.50
13570;BMP180;6856;51.460;7.158;2022-10-16T10:17:16;100457.00;;;21.50
13570;BMP180;6856;51.460;7.158;2022-10-16T10:19:53;100439.00;;;21.60
13570;BMP180;6856;51.460;7.158;2022-10-16T10:22:39;100444.00;;;21.60
13570;BMP180;6856;51.460;7.158;2022-10-16T10:25:39;100442.00;;;21.70
13570;BMP180;6856;51.460;7.158;2022-10-16T10:28:49;100405.00;;;21.70
13570;BMP180;6856;51.460;7.158;2022-10-16T10:31:39;100432.00;;;21.80
13570;BMP180;6856;51.460;7.158;2022-10-16T10:34:36;100421.00;;;21.80
13570;BMP180;6856;51.460;7.158;2022-10-16T10:37:55;100449.00;;;21.80
13570;BMP180;6856;51.460;7.158;2022-10-16T10:40:46;100437.00;;;22.00
13570;BMP180;6856;51.460;7.158;2022-10-16T10:43:49;100449.00;;;22.00
13570;BMP180;6856;51.460;7.158;2022-10-16T10:46:34;100444.00;;;22.20
13570;BMP180;6856;51.460;7.158;2022-10-16T10:49:34;100461.00;;;22.30
13570;BMP180;6856;51.460;7.158;2022-10-16T10:52:41;100451.00;;;22.40
13570;BMP180;6856;51.460;7.158;2022-10-16T10:55:23;100451.00;;;22.40
13570;BMP180;6856;51.460;7.158;2022-10-16T10:58:28;100457.00;;;22.50
13570;BMP180;6856;51.460;7.158;2022-10-16T11:01:10;100449.00;;;22.60
13570;BMP180;6856;51.460;7.158;2022-10-16T11:04:23;100453.00;;;22.70
13570;BMP180;6856;51.460;7.158;2022-10-16T11:07:05;100457.00;;;22.70
13570;BMP180;6856;51.460;7.158;2022-10-16T11:09:49;100451.00;;;22.70
13570;BMP180;6856;51.460;7.158;2022-10-16T11:12:28;100448.00;;;22.70
13570;BMP180;6856;51.460;7.158;2022-10-16T11:15:14;100434.00;;;22.50
13570;BMP180;6856;51.460;7.158;2022-10-16T11:17:55;100448.00;;;22.80
13570;BMP180;6856;51.460;7.158;2022-10-16T11:20:34;100448.00;;;22.80
13570;BMP180;6856;51.460;7.158;2022-10-16T11:23:16;100393.00;;;22.90
13570;BMP180;6856;51.460;7.158;2022-10-16T11:25:56;100453.00;;;22.80
13570;BMP180;6856;51.460;7.158;2022-10-16T11:28:35;100451.00;;;23.00
13570;BMP180;6856;51.460;7.158;2022-10-16T11:31:17;100445.00;;;23.00
13570;BMP180;6856;51.460;7.158;2022-10-16T11:34:02;100460.00;;;22.90
13570;BMP180;6856;51.460;7.158;2022-10-16T11:36:43;100460.00;;;23.00
13570;BMP180;6856;51.460;7.158;2022-10-16T11:39:21;100450.00;;;23.10
13570;BMP180;6856;51.460;7.158;2022-10-16T11:42:04;100451.00;;;23.10
13570;BMP180;6856;51.460;7.158;2022-10-16T11:44:53;100462.00;;;23.20
13570;BMP180;6856;51.460;7.158;2022-10-16T11:47:35;100459.00;;;23.20
13570;BMP180;6856;51.460;7.158;2022-10-16T11:50:35;100464.00;;;23.30
13570;BMP180;6856;51.460;7.158;2022-10-16T11:53:18;100455.00;;;23.30
13570;BMP180;6856;51.460;7.158;2022-10-16T11:55:55;100465.00;;;23.30
13570;BMP180;6856;51.460;7.158;2022-10-16T11:58:40;100457.00;;;23.30
13570;BMP180;6856;51.460;7.158;2022-10-16T12:01:30;100469.00;;;23.40
13570;BMP180;6856;51.460;7.158;2022-10-16T12:04:18;100468.00;;;23.50
13570;BMP180;6856;51.460;7.158;2022-10-16T12:07:01;100487.00;;;23.50
13570;BMP180;6856;51.460;7.158;2022-10-16T12:09:39;100471.00;;;23.60
13570;BMP180;6856;51.460;7.158;2022-10-16T12:12:37;100471.00;;;23.60
13570;BMP180;6856;51.460;7.158;2022-10-16T12:15:24;100492.00;;;23.70
13570;BMP180;6856;51.460;7.158;2022-10-16T12:18:22;100483.00;;;23.70
13570;BMP180;6856;51.460;7.158;2022-10-16T12:20:58;100488.00;;;23.70
13570;BMP180;6856;51.460;7.158;2022-10-16T12:23:49;100489.00;;;23.70
13570;BMP180;6856;51.460;7.158;2022-10-16T12:26:25;100483.00;;;23.80
13570;BMP180;6856;51.460;7.158;2022-10-16T12:29:14;100481.00;;;23.80
13570;BMP180;6856;51.460;7.158;2022-10-16T12:31:57;100478.00;;;23.90
13570;BMP180;6856;51.460;7.158;2022-10-16T12:34:38;100485.00;;;24.00
13570;BMP180;6856;51.460;7.158;2022-10-16T12:37:21;100487.00;;;24.00
13570;BMP180;6856;51.460;7.158;2022-10-16T12:39:58;100489.00;;;24.00
13570;BMP180;6856;51.460;7.158;2022-10-16T12:42:36;100476.00;;;24.10
13570;BMP180;6856;51.460;7.158;2022-10-16T12:45:31;100475.00;;;24.10
13570;BMP180;6856;51.460;7.158;2022-10-16T12:48:21;100496.00;;;24.10
13570;BMP180;6856;51.460;7.158;2022-10-16T12:51:12;100493.00;;;24.10
13570;BMP180;6856;51.460;7.158;2022-10-16T12:53:46;100488.00;;;24.10
13570;BMP180;6856;51.460;7.158;2022-10-16T12:56:32;100503.00;;;24.10
13570;BMP180;6856;51.460;7.158;2022-10-16T12:59:26;100495.00;;;24.00
13570;BMP180;6856;51.460;7.158;2022-10-16T13:02:38;100503.00;;;24.00
13570;BMP180;6856;51.460;7.158;2022-10-16T13:05:36;100508.00;;;23.90
13570;BMP180;6856;51.460;7.158;2022-10-16T13:08:36;100497.00;;;23.90
13570;BMP180;6856;51.460;7.158;2022-10-16T13:11:21;100493.00;;;23.80
13570;BMP180;6856;51.460;7.158;2022-10-16T13:14:29;100495.00;;;23.80
13570;BMP180;6856;51.460;7.158;2022-10-16T13:17:15;100506.00;;;23.80
13570;BMP180;6856;51.460;7.158;2022-10-16T13:20:03;100514.00;;;23.80
13570;BMP180;6856;51.460;7.158;2022-10-16T13:22:53;100500.00;;;23.70
13570;BMP180;6856;51.460;7.158;2022-10-16T13:25:47;100495.00;;;23.80
13570;BMP180;6856;51.460;7.158;2022-10-16T13:28:29;100497.00;;;23.80
13570;BMP180;6856;51.460;7.158;2022-10-16T13:31:13;100508.00;;;23.80
13570;BMP180;6856;51.460;7.158;2022-10-16T13:33:55;100509.00;;;23.80
13570;BMP180;6856;51.460;7.158;2022-10-16T13:36:42;100505.00;;;23.70
13570;BMP180;6856;51.460;7.158;2022-10-16T13:39:25;100526.00;;;23.70
13570;BMP180;6856;51.460;7.158;2022-10-16T13:42:03;100505.00;;;23.70
13570;BMP180;6856;51.460;7.158;2022-10-16T13:44:44;100508.00;;;23.70
13570;BMP180;6856;51.460;7.158;2022-10-16T13:47:23;100530.00;;;23.70
13570;BMP180;6856;51.460;7.158;2022-10-16T13:50:02;100524.00;;;23.60
13570;BMP180;6856;51.460;7.158;2022-10-16T13:52:35;100505.00;;;23.60
13570;BMP180;6856;51.460;7.158;2022-10-16T13:55:17;100521.00;;;23.60
13570;BMP180;6856;51.460;7.158;2022-10-16T13:57:51;100513.00;;;23.60
13570;BMP180;6856;51.460;7.158;2022-10-16T14:00:28;100511.00;;;23.60
13570;BMP180;6856;51.460;7.158;2022-10-16T14:03:13;100503.00;;;23.60
13570;BMP180;6856;51.460;7.158;2022-10-16T14:05:51;100497.00;;;23.60
13570;BMP180;6856;51.460;7.158;2022-10-16T14:08:27;100507.00;;;23.60
13570;BMP180;6856;51.460;7.158;2022-10-16T14:11:03;100517.00;;;23.60
13570;BMP180;6856;51.460;7.158;2022-10-16T14:13:40;100523.00;;;23.60
13570;BMP180;6856;51.460;7.158;2022-10-16T14:16:21;100524.00;;;23.60
13570;BMP180;6856;51.460;7.158;2022-10-16T14:19:00;100529.00;;;23.60
13570;BMP180;6856;51.460;7.158;2022-10-16T14:21:35;100558.00;;;23.60
13570;BMP180;6856;51.460;7.158;2022-10-16T14:24:24;100522.00;;;23.70
13570;BMP180;6856;51.460;7.158;2022-10-16T14:27:01;100526.00;;;23.70
13570;BMP180;6856;51.460;7.158;2022-10-16T14:29:40;100520.00;;;23.70
13570;BMP180;6856;51.460;7.158;2022-10-16T14:32:23;100528.00;;;23.70
13570;BMP180;6856;51.460;7.158;2022-10-16T14:34:57;100542.00;;;23.70
13570;BMP180;6856;51.460;7.158;2022-10-16T14:37:35;100554.00;;;23.70
13570;BMP180;6856;51.460;7.158;2022-10-16T14:40:15;100535.00;;;23.70
13570;BMP180;6856;51.460;7.158;2022-10-16T14:42:50;100513.00;;;23.70
13570;BMP180;6856;51.460;7.158;2022-10-16T14:45:27;100484.00;;;23.70
13570;BMP180;6856;51.460;7.158;2022-10-16T14:48:18;100498.00;;;23.80
13570;BMP180;6856;51.460;7.158;2022-10-16T14:50:52;100512.00;;;23.80
13570;BMP180;6856;51.460;7.158;2022-10-16T14:53:26;100515.00;;;23.80
13570;BMP180;6856;51.460;7.158;2022-10-16T14:56:07;100530.00;;;23.60
13570;BMP180;6856;51.460;7.158;2022-10-16T14:58:42;100534.00;;;23.80
13570;BMP180;6856;51.460;7.158;2022-10-16T15:01:16;100515.00;;;23.80
13570;BMP180;6856;51.460;7.158;2022-10-16T15:03:50;100526.00;;;23.80
13570;BMP180;6856;51.460;7.158;2022-10-16T15:06:26;100518.00;;;23.80
13570;BMP180;6856;51.460;7.158;2022-10-16T15:08:59;100539.00;;;23.80
13570;BMP180;6856;51.460;7.158;2022-10-16T15:11:33;100523.00;;;23.70
13570;BMP180;6856;51.460;7.158;2022-10-16T15:14:11;100528.00;;;23.70
13570;BMP180;6856;51.460;7.158;2022-10-16T15:16:44;100530.00;;;23.70
13570;BMP180;6856;51.460;7.158;2022-10-16T15:19:18;100533.00;;;23.80
13570;BMP180;6856;51.460;7.158;2022-10-16T15:21:51;100526.00;;;23.70